To NAV CANADA Home Page Login to a new session Search on AWWS site Feedback and Comments Disclaimer Vers la page française équivalente Tips FAQ What's new on the site To the Forecasts and Observations / NOTAM section To "File a Flight Plan" website Publications and other links Update of the User's profile FIC Telephone Numbers My Weather Data Folder Route Weather Data Regional Weather Data Local Weather Data To the Forecasts and Observations / NOTAM section
Request Generated 04/28/2015 at 00:33:18 UTC . Weather information available at that time is displayed.

METAR/TAF

ISLAND LAKE/MB    

METAR CYIV 280000Z 25006KT 15SM OVC080 05/01 A3015 RMK AC8 SLP223=
METAR CYIV 272300Z 25011KT 15SM OVC080 06/01 A3015 RMK AC8 SLP222=
METAR CYIV 272200Z 25009KT 15SM OVC080 06/01 A3015 RMK AC8 SLP221=

TAF CYIV 271838Z 2719/2807 24010KT P6SM FEW020 OVC080 TEMPO 2719/2723
P6SM -SHRA BKN020 OVC060
BECMG 2719/2721 26012KT
FM272300 27008KT P6SM SCT015 BKN025 TEMPO 2723/2807 OVC015
RMK NXT FCST BY 280100Z=
Your time UTC time
Weather data provided by Environment Canada and NAV CANADA